sensor_id;sensor_type;location;lat;lon;timestamp;pressure;altitude;pressure_sealevel;temperature;humidity
52693;BME280;68218;51.012;-1.648;2024-02-15T00:01:57;66386.94;;;-146.32;100.00
52693;BME280;68218;51.012;-1.648;2024-02-15T00:04:22;66386.94;;;-146.32;100.00
52693;BME280;68218;51.012;-1.648;2024-02-15T00:06:47;66386.94;;;-146.32;100.00
52693;BME280;68218;51.012;-1.648;2024-02-15T00:09:13;66386.94;;;-146.32;100.00
52693;BME280;68218;51.012;-1.648;2024-02-15T00:11:38;66386.94;;;-146.32;100.00
52693;BME280;68218;51.012;-1.648;2024-02-15T00:14:04;66386.94;;;-146.32;100.00
52693;BME280;68218;51.012;-1.648;2024-02-15T00:16:30;66386.94;;;-146.32;100.00
52693;BME280;68218;51.012;-1.648;2024-02-15T00:18:55;66386.94;;;-146.32;100.00
52693;BME280;68218;51.012;-1.648;2024-02-15T00:21:21;66386.94;;;-146.32;100.00
52693;BME280;68218;51.012;-1.648;2024-02-15T00:23:48;66386.94;;;-146.32;100.00
52693;BME280;68218;51.012;-1.648;2024-02-15T00:26:13;66386.94;;;-146.32;100.00
52693;BME280;68218;51.012;-1.648;2024-02-15T00:28:41;66386.94;;;-146.32;100.00
52693;BME280;68218;51.012;-1.648;2024-02-15T00:31:06;66386.94;;;-146.32;100.00
52693;BME280;68218;51.012;-1.648;2024-02-15T00:33:33;66386.94;;;-146.32;100.00
52693;BME280;68218;51.012;-1.648;2024-02-15T00:35:58;66386.94;;;-146.32;100.00
52693;BME280;68218;51.012;-1.648;2024-02-15T00:38:23;66386.94;;;-146.32;100.00
52693;BME280;68218;51.012;-1.648;2024-02-15T00:40:49;66386.94;;;-146.32;100.00
52693;BME280;68218;51.012;-1.648;2024-02-15T00:43:14;66386.94;;;-146.32;100.00
52693;BME280;68218;51.012;-1.648;2024-02-15T00:45:39;66386.94;;;-146.32;100.00
52693;BME280;68218;51.012;-1.648;2024-02-15T00:48:06;66386.94;;;-146.32;100.00
52693;BME280;68218;51.012;-1.648;2024-02-15T00:50:31;66386.94;;;-146.32;100.00
52693;BME280;68218;51.012;-1.648;2024-02-15T00:52:56;66386.94;;;-146.32;100.00
52693;BME280;68218;51.012;-1.648;2024-02-15T00:55:22;66386.94;;;-146.32;100.00
52693;BME280;68218;51.012;-1.648;2024-02-15T00:57:47;66386.94;;;-146.32;100.00
52693;BME280;68218;51.012;-1.648;2024-02-15T01:00:13;66386.94;;;-146.32;100.00
52693;BME280;68218;51.012;-1.648;2024-02-15T01:02:38;66386.94;;;-146.32;100.00
52693;BME280;68218;51.012;-1.648;2024-02-15T01:05:04;66386.94;;;-146.32;100.00
52693;BME280;68218;51.012;-1.648;2024-02-15T01:07:29;66386.94;;;-146.32;100.00
52693;BME280;68218;51.012;-1.648;2024-02-15T01:09:55;66386.94;;;-146.32;100.00
52693;BME280;68218;51.012;-1.648;2024-02-15T01:12:20;66386.94;;;-146.32;100.00
52693;BME280;68218;51.012;-1.648;2024-02-15T01:14:46;66386.94;;;-146.32;100.00
52693;BME280;68218;51.012;-1.648;2024-02-15T01:17:12;66386.94;;;-146.32;100.00
52693;BME280;68218;51.012;-1.648;2024-02-15T01:19:37;66386.94;;;-146.32;100.00
52693;BME280;68218;51.012;-1.648;2024-02-15T01:22:02;66386.94;;;-146.32;100.00
52693;BME280;68218;51.012;-1.648;2024-02-15T01:24:28;66386.94;;;-146.32;100.00
52693;BME280;68218;51.012;-1.648;2024-02-15T01:26:53;66386.94;;;-146.32;100.00
52693;BME280;68218;51.012;-1.648;2024-02-15T01:29:19;66386.94;;;-146.32;100.00
52693;BME280;68218;51.012;-1.648;2024-02-15T01:31:45;66386.94;;;-146.32;100.00
52693;BME280;68218;51.012;-1.648;2024-02-15T01:34:11;66386.94;;;-146.32;100.00
52693;BME280;68218;51.012;-1.648;2024-02-15T01:36:36;66386.94;;;-146.32;100.00
52693;BME280;68218;51.012;-1.648;2024-02-15T01:39:01;66386.94;;;-146.32;100.00
52693;BME280;68218;51.012;-1.648;2024-02-15T01:41:26;66386.94;;;-146.32;100.00
52693;BME280;68218;51.012;-1.648;2024-02-15T01:43:52;66386.94;;;-146.32;100.00
52693;BME280;68218;51.012;-1.648;2024-02-15T01:46:18;66386.94;;;-146.32;100.00
52693;BME280;68218;51.012;-1.648;2024-02-15T01:48:45;66386.94;;;-146.32;100.00
52693;BME280;68218;51.012;-1.648;2024-02-15T01:51:12;66386.94;;;-146.32;100.00
52693;BME280;68218;51.012;-1.648;2024-02-15T01:53:40;66386.94;;;-146.32;100.00
52693;BME280;68218;51.012;-1.648;2024-02-15T01:56:07;66386.94;;;-146.32;100.00
52693;BME280;68218;51.012;-1.648;2024-02-15T01:58:33;66386.94;;;-146.32;100.00
52693;BME280;68218;51.012;-1.648;2024-02-15T02:01:00;66386.94;;;-146.32;100.00
52693;BME280;68218;51.012;-1.648;2024-02-15T02:03:26;66386.94;;;-146.32;100.00
52693;BME280;68218;51.012;-1.648;2024-02-15T02:05:52;66386.94;;;-146.32;100.00
52693;BME280;68218;51.012;-1.648;2024-02-15T02:08:18;66386.94;;;-146.32;100.00
52693;BME280;68218;51.012;-1.648;2024-02-15T02:10:43;66386.94;;;-146.32;100.00
52693;BME280;68218;51.012;-1.648;2024-02-15T02:13:11;66386.94;;;-146.32;100.00
52693;BME280;68218;51.012;-1.648;2024-02-15T02:15:36;66386.94;;;-146.32;100.00
52693;BME280;68218;51.012;-1.648;2024-02-15T02:18:03;66386.94;;;-146.32;100.00
52693;BME280;68218;51.012;-1.648;2024-02-15T02:20:33;66386.94;;;-146.32;100.00
52693;BME280;68218;51.012;-1.648;2024-02-15T02:23:16;66386.94;;;-146.32;100.00
52693;BME280;68218;51.012;-1.648;2024-02-15T02:25:44;66386.94;;;-146.32;100.00
52693;BME280;68218;51.012;-1.648;2024-02-15T02:28:09;66386.94;;;-146.32;100.00
52693;BME280;68218;51.012;-1.648;2024-02-15T02:30:35;66386.94;;;-146.32;100.00
52693;BME280;68218;51.012;-1.648;2024-02-15T02:33:01;66386.94;;;-146.32;100.00
52693;BME280;68218;51.012;-1.648;2024-02-15T02:35:27;66386.94;;;-146.32;100.00
52693;BME280;68218;51.012;-1.648;2024-02-15T02:37:55;66386.94;;;-146.32;100.00
52693;BME280;68218;51.012;-1.648;2024-02-15T02:40:20;66386.94;;;-146.32;100.00
52693;BME280;68218;51.012;-1.648;2024-02-15T02:42:54;66386.94;;;-146.32;100.00
52693;BME280;68218;51.012;-1.648;2024-02-15T02:45:24;66386.94;;;-146.32;100.00
52693;BME280;68218;51.012;-1.648;2024-02-15T02:47:50;66386.94;;;-146.32;100.00
52693;BME280;68218;51.012;-1.648;2024-02-15T02:50:16;66386.94;;;-146.32;100.00
52693;BME280;68218;51.012;-1.648;2024-02-15T02:52:41;66386.94;;;-146.32;100.00
52693;BME280;68218;51.012;-1.648;2024-02-15T02:55:07;66386.94;;;-146.32;100.00
52693;BME280;68218;51.012;-1.648;2024-02-15T02:57:36;66386.94;;;-146.32;100.00
52693;BME280;68218;51.012;-1.648;2024-02-15T03:00:06;66386.94;;;-146.32;100.00
52693;BME280;68218;51.012;-1.648;2024-02-15T03:02:40;66386.94;;;-146.32;100.00
52693;BME280;68218;51.012;-1.648;2024-02-15T03:05:06;66386.94;;;-146.32;100.00
52693;BME280;68218;51.012;-1.648;2024-02-15T03:07:33;66386.94;;;-146.32;100.00
52693;BME280;68218;51.012;-1.648;2024-02-15T03:10:00;66386.94;;;-146.32;100.00
52693;BME280;68218;51.012;-1.648;2024-02-15T03:12:25;66386.94;;;-146.32;100.00
52693;BME280;68218;51.012;-1.648;2024-02-15T03:14:51;66386.94;;;-146.32;100.00
52693;BME280;68218;51.012;-1.648;2024-02-15T03:17:17;66386.94;;;-146.32;100.00
52693;BME280;68218;51.012;-1.648;2024-02-15T03:19:42;66386.94;;;-146.32;100.00
52693;BME280;68218;51.012;-1.648;2024-02-15T03:22:07;66386.94;;;-146.32;100.00
52693;BME280;68218;51.012;-1.648;2024-02-15T03:24:33;66386.94;;;-146.32;100.00
52693;BME280;68218;51.012;-1.648;2024-02-15T03:26:58;66386.94;;;-146.32;100.00
52693;BME280;68218;51.012;-1.648;2024-02-15T03:29:23;66386.94;;;-146.32;100.00
52693;BME280;68218;51.012;-1.648;2024-02-15T03:31:50;66386.94;;;-146.32;100.00
52693;BME280;68218;51.012;-1.648;2024-02-15T03:34:18;66386.94;;;-146.32;100.00
52693;BME280;68218;51.012;-1.648;2024-02-15T03:36:46;66386.94;;;-146.32;100.00
52693;BME280;68218;51.012;-1.648;2024-02-15T03:39:13;66386.94;;;-146.32;100.00
52693;BME280;68218;51.012;-1.648;2024-02-15T03:41:38;66386.94;;;-146.32;100.00
52693;BME280;68218;51.012;-1.648;2024-02-15T03:44:04;66386.94;;;-146.32;100.00
52693;BME280;68218;51.012;-1.648;2024-02-15T03:46:29;66386.94;;;-146.32;100.00
52693;BME280;68218;51.012;-1.648;2024-02-15T03:48:54;66386.94;;;-146.32;100.00
52693;BME280;68218;51.012;-1.648;2024-02-15T03:51:22;66386.94;;;-146.32;100.00
52693;BME280;68218;51.012;-1.648;2024-02-15T03:53:50;66386.94;;;-146.32;100.00
52693;BME280;68218;51.012;-1.648;2024-02-15T03:56:17;66386.94;;;-146.32;100.00
52693;BME280;68218;51.012;-1.648;2024-02-15T03:58:42;66386.94;;;-146.32;100.00
52693;BME280;68218;51.012;-1.648;2024-02-15T04:01:07;66386.94;;;-146.32;100.00
52693;BME280;68218;51.012;-1.648;2024-02-15T04:03:35;66386.94;;;-146.32;100.00
52693;BME280;68218;51.012;-1.648;2024-02-15T04:06:01;66386.94;;;-146.32;100.00
52693;BME280;68218;51.012;-1.648;2024-02-15T04:08:26;66386.94;;;-146.32;100.00
52693;BME280;68218;51.012;-1.648;2024-02-15T04:10:52;66386.94;;;-146.32;100.00
52693;BME280;68218;51.012;-1.648;2024-02-15T04:13:18;66386.94;;;-146.32;100.00
52693;BME280;68218;51.012;-1.648;2024-02-15T04:15:43;66386.94;;;-146.32;100.00
52693;BME280;68218;51.012;-1.648;2024-02-15T04:18:12;66386.94;;;-146.32;100.00
52693;BME280;68218;51.012;-1.648;2024-02-15T04:20:39;66386.94;;;-146.32;100.00
52693;BME280;68218;51.012;-1.648;2024-02-15T04:23:09;66386.94;;;-146.32;100.00
52693;BME280;68218;51.012;-1.648;2024-02-15T04:25:35;66386.94;;;-146.32;100.00
52693;BME280;68218;51.012;-1.648;2024-02-15T04:28:00;66386.94;;;-146.32;100.00
52693;BME280;68218;51.012;-1.648;2024-02-15T04:30:29;66386.94;;;-146.32;100.00
52693;BME280;68218;51.012;-1.648;2024-02-15T04:32:54;66386.94;;;-146.32;100.00
52693;BME280;68218;51.012;-1.648;2024-02-15T04:35:19;66386.94;;;-146.32;100.00
52693;BME280;68218;51.012;-1.648;2024-02-15T04:37:44;66386.94;;;-146.32;100.00
52693;BME280;68218;51.012;-1.648;2024-02-15T04:40:12;66386.94;;;-146.32;100.00
52693;BME280;68218;51.012;-1.648;2024-02-15T04:42:38;66386.94;;;-146.32;100.00
52693;BME280;68218;51.012;-1.648;2024-02-15T04:45:09;66386.94;;;-146.32;100.00
52693;BME280;68218;51.012;-1.648;2024-02-15T04:47:36;66386.94;;;-146.32;100.00
52693;BME280;68218;51.012;-1.648;2024-02-15T04:50:02;66386.94;;;-146.32;100.00
52693;BME280;68218;51.012;-1.648;2024-02-15T04:52:28;66386.94;;;-146.32;100.00
52693;BME280;68218;51.012;-1.648;2024-02-15T04:54:54;66386.94;;;-146.32;100.00
52693;BME280;68218;51.012;-1.648;2024-02-15T04:57:20;66386.94;;;-146.32;100.00
52693;BME280;68218;51.012;-1.648;2024-02-15T04:59:45;66386.94;;;-146.32;100.00
52693;BME280;68218;51.012;-1.648;2024-02-15T05:02:13;66386.94;;;-146.32;100.00
52693;BME280;68218;51.012;-1.648;2024-02-15T05:04:38;66386.94;;;-146.32;100.00
52693;BME280;68218;51.012;-1.648;2024-02-15T05:07:03;66386.94;;;-146.32;100.00
52693;BME280;68218;51.012;-1.648;2024-02-15T05:09:29;66386.94;;;-146.32;100.00
52693;BME280;68218;51.012;-1.648;2024-02-15T05:11:56;66386.94;;;-146.32;100.00
52693;BME280;68218;51.012;-1.648;2024-02-15T05:14:22;66386.94;;;-146.32;100.00
52693;BME280;68218;51.012;-1.648;2024-02-15T05:16:49;66386.94;;;-146.32;100.00
52693;BME280;68218;51.012;-1.648;2024-02-15T05:19:15;66386.94;;;-146.32;100.00
52693;BME280;68218;51.012;-1.648;2024-02-15T05:21:41;66386.94;;;-146.32;100.00
52693;BME280;68218;51.012;-1.648;2024-02-15T05:24:10;66386.94;;;-146.32;100.00
52693;BME280;68218;51.012;-1.648;2024-02-15T05:26:36;66386.94;;;-146.32;100.00
52693;BME280;68218;51.012;-1.648;2024-02-15T05:29:01;66386.94;;;-146.32;100.00
52693;BME280;68218;51.012;-1.648;2024-02-15T05:31:26;66386.94;;;-146.32;100.00
52693;BME280;68218;51.012;-1.648;2024-02-15T05:33:53;66386.94;;;-146.32;100.00
52693;BME280;68218;51.012;-1.648;2024-02-15T05:36:20;66386.94;;;-146.32;100.00
52693;BME280;68218;51.012;-1.648;2024-02-15T05:38:47;66386.94;;;-146.32;100.00
52693;BME280;68218;51.012;-1.648;2024-02-15T05:41:13;66386.94;;;-146.32;100.00
52693;BME280;68218;51.012;-1.648;2024-02-15T05:43:39;66386.94;;;-146.32;100.00
52693;BME280;68218;51.012;-1.648;2024-02-15T05:46:07;66386.94;;;-146.32;100.00
52693;BME280;68218;51.012;-1.648;2024-02-15T05:48:33;66386.94;;;-146.32;100.00
52693;BME280;68218;51.012;-1.648;2024-02-15T05:51:06;66386.94;;;-146.32;100.00
52693;BME280;68218;51.012;-1.648;2024-02-15T05:53:32;66386.94;;;-146.32;100.00
52693;BME280;68218;51.012;-1.648;2024-02-15T05:56:08;66386.94;;;-146.32;100.00
52693;BME280;68218;51.012;-1.648;2024-02-15T05:58:36;66386.94;;;-146.32;100.00
52693;BME280;68218;51.012;-1.648;2024-02-15T06:01:03;66386.94;;;-146.32;100.00
52693;BME280;68218;51.012;-1.648;2024-02-15T06:03:31;66386.94;;;-146.32;100.00
52693;BME280;68218;51.012;-1.648;2024-02-15T06:05:58;66386.94;;;-146.32;100.00
52693;BME280;68218;51.012;-1.648;2024-02-15T06:08:28;66386.94;;;-146.32;100.00
52693;BME280;68218;51.012;-1.648;2024-02-15T06:10:56;66386.94;;;-146.32;100.00
52693;BME280;68218;51.012;-1.648;2024-02-15T06:13:23;66386.94;;;-146.32;100.00
52693;BME280;68218;51.012;-1.648;2024-02-15T06:15:49;66386.94;;;-146.32;100.00
52693;BME280;68218;51.012;-1.648;2024-02-15T06:18:19;66386.94;;;-146.32;100.00
52693;BME280;68218;51.012;-1.648;2024-02-15T06:20:47;66386.94;;;-146.32;100.00
52693;BME280;68218;51.012;-1.648;2024-02-15T06:23:15;66386.94;;;-146.32;100.00
52693;BME280;68218;51.012;-1.648;2024-02-15T06:25:40;66386.94;;;-146.32;100.00
52693;BME280;68218;51.012;-1.648;2024-02-15T06:28:05;66386.94;;;-146.32;100.00
52693;BME280;68218;51.012;-1.648;2024-02-15T06:30:41;66386.94;;;-146.32;100.00
52693;BME280;68218;51.012;-1.648;2024-02-15T06:33:25;66386.94;;;-146.32;100.00
52693;BME280;68218;51.012;-1.648;2024-02-15T06:36:09;66386.94;;;-146.32;100.00
52693;BME280;68218;51.012;-1.648;2024-02-15T06:38:53;66386.94;;;-146.32;100.00
52693;BME280;68218;51.012;-1.648;2024-02-15T06:41:37;66386.94;;;-146.32;100.00
52693;BME280;68218;51.012;-1.648;2024-02-15T06:44:03;66386.94;;;-146.32;100.00
52693;BME280;68218;51.012;-1.648;2024-02-15T06:46:28;66386.94;;;-146.32;100.00
52693;BME280;68218;51.012;-1.648;2024-02-15T06:48:54;66386.94;;;-146.32;100.00
52693;BME280;68218;51.012;-1.648;2024-02-15T06:51:19;66386.94;;;-146.32;100.00
52693;BME280;68218;51.012;-1.648;2024-02-15T06:53:45;66386.94;;;-146.32;100.00
52693;BME280;68218;51.012;-1.648;2024-02-15T06:56:11;66386.94;;;-146.32;100.00
52693;BME280;68218;51.012;-1.648;2024-02-15T06:58:39;66386.94;;;-146.32;100.00
52693;BME280;68218;51.012;-1.648;2024-02-15T07:01:05;66386.94;;;-146.32;100.00
52693;BME280;68218;51.012;-1.648;2024-02-15T07:03:31;66386.94;;;-146.32;100.00
52693;BME280;68218;51.012;-1.648;2024-02-15T07:05:57;66386.94;;;-146.32;100.00
52693;BME280;68218;51.012;-1.648;2024-02-15T07:08:22;66386.94;;;-146.32;100.00
52693;BME280;68218;51.012;-1.648;2024-02-15T07:10:50;66386.94;;;-146.32;100.00
52693;BME280;68218;51.012;-1.648;2024-02-15T07:13:17;66386.94;;;-146.32;100.00
52693;BME280;68218;51.012;-1.648;2024-02-15T07:15:42;66386.94;;;-146.32;100.00
52693;BME280;68218;51.012;-1.648;2024-02-15T07:18:09;66386.94;;;-146.32;100.00
52693;BME280;68218;51.012;-1.648;2024-02-15T07:20:36;66386.94;;;-146.32;100.00
52693;BME280;68218;51.012;-1.648;2024-02-15T07:23:02;66386.94;;;-146.32;100.00
52693;BME280;68218;51.012;-1.648;2024-02-15T07:25:28;66386.94;;;-146.32;100.00
52693;BME280;68218;51.012;-1.648;2024-02-15T07:27:54;66386.94;;;-146.32;100.00
52693;BME280;68218;51.012;-1.648;2024-02-15T07:30:19;66386.94;;;-146.32;100.00
52693;BME280;68218;51.012;-1.648;2024-02-15T07:32:44;66386.94;;;-146.32;100.00
52693;BME280;68218;51.012;-1.648;2024-02-15T07:35:10;66386.94;;;-146.32;100.00
52693;BME280;68218;51.012;-1.648;2024-02-15T07:37:35;66386.94;;;-146.32;100.00
52693;BME280;68218;51.012;-1.648;2024-02-15T07:40:01;66386.94;;;-146.32;100.00
52693;BME280;68218;51.012;-1.648;2024-02-15T07:42:29;66386.94;;;-146.32;100.00
52693;BME280;68218;51.012;-1.648;2024-02-15T07:44:54;66386.94;;;-146.32;100.00
52693;BME280;68218;51.012;-1.648;2024-02-15T07:47:20;66386.94;;;-146.32;100.00
52693;BME280;68218;51.012;-1.648;2024-02-15T07:49:49;66386.94;;;-146.32;100.00
52693;BME280;68218;51.012;-1.648;2024-02-15T07:52:15;66386.94;;;-146.32;100.00
52693;BME280;68218;51.012;-1.648;2024-02-15T07:54:40;66386.94;;;-146.32;100.00
52693;BME280;68218;51.012;-1.648;2024-02-15T07:57:05;66386.94;;;-146.32;100.00
52693;BME280;68218;51.012;-1.648;2024-02-15T07:59:31;66386.94;;;-146.32;100.00
52693;BME280;68218;51.012;-1.648;2024-02-15T08:01:56;66386.94;;;-146.32;100.00
52693;BME280;68218;51.012;-1.648;2024-02-15T08:04:23;66386.94;;;-146.32;100.00
52693;BME280;68218;51.012;-1.648;2024-02-15T08:06:50;66386.94;;;-146.32;100.00
52693;BME280;68218;51.012;-1.648;2024-02-15T08:09:17;66386.94;;;-146.32;100.00
52693;BME280;68218;51.012;-1.648;2024-02-15T08:11:45;66386.94;;;-146.32;100.00
52693;BME280;68218;51.012;-1.648;2024-02-15T08:14:10;66386.94;;;-146.32;100.00
52693;BME280;68218;51.012;-1.648;2024-02-15T08:16:36;66386.94;;;-146.32;100.00
52693;BME280;68218;51.012;-1.648;2024-02-15T08:19:06;66386.94;;;-146.32;100.00
52693;BME280;68218;51.012;-1.648;2024-02-15T08:21:33;66386.94;;;-146.32;100.00
52693;BME280;68218;51.012;-1.648;2024-02-15T08:24:00;66386.94;;;-146.32;100.00
52693;BME280;68218;51.012;-1.648;2024-02-15T08:26:32;66386.94;;;-146.32;100.00
52693;BME280;68218;51.012;-1.648;2024-02-15T08:28:58;66386.94;;;-146.32;100.00
52693;BME280;68218;51.012;-1.648;2024-02-15T08:31:23;66386.94;;;-146.32;100.00
52693;BME280;68218;51.012;-1.648;2024-02-15T08:33:49;66386.94;;;-146.32;100.00
52693;BME280;68218;51.012;-1.648;2024-02-15T08:36:14;66386.94;;;-146.32;100.00
52693;BME280;68218;51.012;-1.648;2024-02-15T08:38:39;66386.94;;;-146.32;100.00
52693;BME280;68218;51.012;-1.648;2024-02-15T08:41:06;66386.94;;;-146.32;100.00
52693;BME280;68218;51.012;-1.648;2024-02-15T08:43:33;66386.94;;;-146.32;100.00
52693;BME280;68218;51.012;-1.648;2024-02-15T08:45:58;66386.94;;;-146.32;100.00
52693;BME280;68218;51.012;-1.648;2024-02-15T08:48:24;66386.94;;;-146.32;100.00
52693;BME280;68218;51.012;-1.648;2024-02-15T08:50:51;66386.94;;;-146.32;100.00
52693;BME280;68218;51.012;-1.648;2024-02-15T08:53:16;66386.94;;;-146.32;100.00
52693;BME280;68218;51.012;-1.648;2024-02-15T08:55:47;66386.94;;;-146.32;100.00
52693;BME280;68218;51.012;-1.648;2024-02-15T08:58:13;66386.94;;;-146.32;100.00
52693;BME280;68218;51.012;-1.648;2024-02-15T09:00:39;66386.94;;;-146.32;100.00
52693;BME280;68218;51.012;-1.648;2024-02-15T09:03:09;66386.94;;;-146.32;100.00
52693;BME280;68218;51.012;-1.648;2024-02-15T09:05:35;66386.94;;;-146.32;100.00
52693;BME280;68218;51.012;-1.648;2024-02-15T09:08:00;66386.94;;;-146.32;100.00
52693;BME280;68218;51.012;-1.648;2024-02-15T09:10:25;66386.94;;;-146.32;100.00
52693;BME280;68218;51.012;-1.648;2024-02-15T09:12:51;66386.94;;;-146.32;100.00
52693;BME280;68218;51.012;-1.648;2024-02-15T09:15:17;66386.94;;;-146.32;100.00
52693;BME280;68218;51.012;-1.648;2024-02-15T09:17:43;66386.94;;;-146.32;100.00
52693;BME280;68218;51.012;-1.648;2024-02-15T09:20:11;66386.94;;;-146.32;100.00
52693;BME280;68218;51.012;-1.648;2024-02-15T09:22:48;66386.94;;;-146.32;100.00
52693;BME280;68218;51.012;-1.648;2024-02-15T09:25:14;66386.94;;;-146.32;100.00
52693;BME280;68218;51.012;-1.648;2024-02-15T09:27:40;66386.94;;;-146.32;100.00
52693;BME280;68218;51.012;-1.648;2024-02-15T09:30:06;66386.94;;;-146.32;100.00
52693;BME280;68218;51.012;-1.648;2024-02-15T09:32:37;66386.94;;;-146.32;100.00
52693;BME280;68218;51.012;-1.648;2024-02-15T09:35:03;66386.94;;;-146.32;100.00
52693;BME280;68218;51.012;-1.648;2024-02-15T09:37:28;66386.94;;;-146.32;100.00
52693;BME280;68218;51.012;-1.648;2024-02-15T09:39:55;66386.94;;;-146.32;100.00
52693;BME280;68218;51.012;-1.648;2024-02-15T09:42:21;66386.94;;;-146.32;100.00
52693;BME280;68218;51.012;-1.648;2024-02-15T09:44:47;66386.94;;;-146.32;100.00
52693;BME280;68218;51.012;-1.648;2024-02-15T09:47:12;66386.94;;;-146.32;100.00
52693;BME280;68218;51.012;-1.648;2024-02-15T09:49:40;66386.94;;;-146.32;100.00
52693;BME280;68218;51.012;-1.648;2024-02-15T09:52:07;99869.88;;;12.09;100.00
52693;BME280;68218;51.012;-1.648;2024-02-15T09:54:43;99863.59;;;12.18;100.00
52693;BME280;68218;51.012;-1.648;2024-02-15T09:57:10;99867.88;;;12.20;100.00
52693;BME280;68218;51.012;-1.648;2024-02-15T09:59:38;99866.53;;;12.22;100.00
52693;BME280;68218;51.012;-1.648;2024-02-15T10:02:05;99853.25;;;12.26;100.00
52693;BME280;68218;51.012;-1.648;2024-02-15T10:04:44;99847.28;;;12.29;100.00
52693;BME280;68218;51.012;-1.648;2024-02-15T10:07:09;99841.03;;;12.28;100.00
52693;BME280;68218;51.012;-1.648;2024-02-15T10:09:36;99835.91;;;12.27;100.00
52693;BME280;68218;51.012;-1.648;2024-02-15T10:12:03;99843.13;;;12.36;100.00
52693;BME280;68218;51.012;-1.648;2024-02-15T10:14:32;99838.25;;;12.39;100.00
52693;BME280;68218;51.012;-1.648;2024-02-15T10:17:05;99840.38;;;12.42;100.00
52693;BME280;68218;51.012;-1.648;2024-02-15T10:19:31;99838.34;;;12.28;100.00
52693;BME280;68218;51.012;-1.648;2024-02-15T10:22:07;99833.94;;;12.38;100.00
52693;BME280;68218;51.012;-1.648;2024-02-15T10:24:32;99835.31;;;12.35;100.00
52693;BME280;68218;51.012;-1.648;2024-02-15T10:27:02;99832.28;;;12.42;100.00
52693;BME280;68218;51.012;-1.648;2024-02-15T10:29:32;99833.03;;;12.47;100.00
52693;BME280;68218;51.012;-1.648;2024-02-15T10:32:00;99817.28;;;12.54;100.00
52693;BME280;68218;51.012;-1.648;2024-02-15T10:34:26;99809.13;;;12.60;100.00
52693;BME280;68218;51.012;-1.648;2024-02-15T10:36:53;99816.13;;;12.61;100.00
52693;BME280;68218;51.012;-1.648;2024-02-15T10:39:21;99811.88;;;12.54;100.00
52693;BME280;68218;51.012;-1.648;2024-02-15T10:41:53;99806.47;;;12.54;100.00
52693;BME280;68218;51.012;-1.648;2024-02-15T10:44:21;99815.47;;;12.45;100.00
52693;BME280;68218;51.012;-1.648;2024-02-15T10:46:48;99821.13;;;12.48;100.00
52693;BME280;68218;51.012;-1.648;2024-02-15T10:51:44;99820.22;;;12.58;100.00
52693;BME280;68218;51.012;-1.648;2024-02-15T10:54:16;99823.44;;;12.60;100.00
52693;BME280;68218;51.012;-1.648;2024-02-15T10:56:49;99817.13;;;12.70;100.00
52693;BME280;68218;51.012;-1.648;2024-02-15T10:59:24;99820.06;;;12.73;100.00
52693;BME280;68218;51.012;-1.648;2024-02-15T11:01:59;99818.97;;;12.74;100.00
52693;BME280;68218;51.012;-1.648;2024-02-15T11:04:25;99820.25;;;12.82;100.00
52693;BME280;68218;51.012;-1.648;2024-02-15T11:06:58;99819.63;;;12.90;100.00
52693;BME280;68218;51.012;-1.648;2024-02-15T11:09:24;99819.63;;;12.90;100.00
52693;BME280;68218;51.012;-1.648;2024-02-15T11:11:52;99806.03;;;12.96;100.00
52693;BME280;68218;51.012;-1.648;2024-02-15T11:14:31;99809.47;;;13.01;100.00
52693;BME280;68218;51.012;-1.648;2024-02-15T11:17:01;99795.06;;;13.06;100.00
52693;BME280;68218;51.012;-1.648;2024-02-15T11:22:11;99785.03;;;13.06;100.00
52693;BME280;68218;51.012;-1.648;2024-02-15T11:24:50;99774.97;;;13.50;100.00
52693;BME280;68218;51.012;-1.648;2024-02-15T11:27:35;99764.69;;;13.52;100.00
52693;BME280;68218;51.012;-1.648;2024-02-15T11:30:04;99765.19;;;13.54;100.00
52693;BME280;68218;51.012;-1.648;2024-02-15T11:32:44;99776.91;;;13.49;100.00
52693;BME280;68218;51.012;-1.648;2024-02-15T11:35:13;99772.13;;;13.60;100.00
52693;BME280;68218;51.012;-1.648;2024-02-15T11:43:07;99761.97;;;13.71;100.00
52693;BME280;68218;51.012;-1.648;2024-02-15T11:45:34;99751.31;;;13.75;100.00
52693;BME280;68218;51.012;-1.648;2024-02-15T11:48:10;99749.53;;;13.84;100.00
52693;BME280;68218;51.012;-1.648;2024-02-15T11:50:37;99748.66;;;13.56;100.00
52693;BME280;68218;51.012;-1.648;2024-02-15T11:53:05;99756.53;;;13.71;100.00
52693;BME280;68218;51.012;-1.648;2024-02-15T11:55:34;99748.44;;;13.85;100.00
52693;BME280;68218;51.012;-1.648;2024-02-15T11:58:03;99754.19;;;13.97;100.00
52693;BME280;68218;51.012;-1.648;2024-02-15T12:00:36;99752.88;;;13.95;100.00
52693;BME280;68218;51.012;-1.648;2024-02-15T12:03:21;99755.75;;;14.03;100.00
52693;BME280;68218;51.012;-1.648;2024-02-15T12:06:05;99764.50;;;14.14;100.00
52693;BME280;68218;51.012;-1.648;2024-02-15T12:08:52;99761.59;;;14.24;100.00
52693;BME280;68218;51.012;-1.648;2024-02-15T12:11:37;99753.59;;;14.47;100.00
52693;BME280;68218;51.012;-1.648;2024-02-15T12:14:21;99745.88;;;14.82;100.00
52693;BME280;68218;51.012;-1.648;2024-02-15T12:17:06;99752.53;;;14.76;100.00
52693;BME280;68218;51.012;-1.648;2024-02-15T12:19:51;99751.94;;;14.79;99.88
52693;BME280;68218;51.012;-1.648;2024-02-15T12:22:35;99754.03;;;14.68;100.00
52693;BME280;68218;51.012;-1.648;2024-02-15T12:25:05;99745.47;;;14.89;100.00
52693;BME280;68218;51.012;-1.648;2024-02-15T12:27:38;99738.22;;;14.98;96.20
52693;BME280;68218;51.012;-1.648;2024-02-15T12:30:04;99732.28;;;15.10;100.00
52693;BME280;68218;51.012;-1.648;2024-02-15T12:32:32;99721.91;;;15.12;96.91
52693;BME280;68218;51.012;-1.648;2024-02-15T12:35:11;66386.94;;;-146.32;100.00
52693;BME280;68218;51.012;-1.648;2024-02-15T12:37:45;66386.94;;;-146.32;100.00
52693;BME280;68218;51.012;-1.648;2024-02-15T12:40:12;66386.94;;;-146.32;100.00